createdAt,value
2019-05-01T00:00:59.666Z,101588.77
2019-05-01T00:02:43.804Z,101589.21
2019-05-01T00:04:18.781Z,101586.24
2019-05-01T00:05:30.266Z,101593.05
2019-05-01T00:06:43.500Z,101591.78
2019-05-01T00:07:50.277Z,101593.05
2019-05-01T00:08:57.521Z,101595.16
2019-05-01T00:10:05.061Z,101593.41
2019-05-01T00:11:12.297Z,101596.34
2019-05-01T00:12:19.671Z,101597.30
2019-05-01T00:13:26.603Z,101592.98
2019-05-01T00:14:34.150Z,101596.38
2019-05-01T00:15:42.050Z,101589.59
2019-05-01T00:16:48.975Z,101594.64
2019-05-01T00:17:55.977Z,101592.87
2019-05-01T00:19:02.884Z,101590.34
2019-05-01T00:20:10.232Z,101587.04
2019-05-01T00:21:17.031Z,101589.23
2019-05-01T00:22:23.768Z,101587.92
2019-05-01T00:23:31.093Z,101590.03
2019-05-01T00:24:37.912Z,101591.72
2019-05-01T00:25:44.735Z,101585.77
2019-05-01T00:26:51.775Z,101590.13
2019-05-01T00:27:58.592Z,101587.56
2019-05-01T00:29:05.626Z,101589.69
2019-05-01T00:30:28.790Z,101589.34
2019-05-01T00:31:25.038Z,101587.21
2019-05-01T00:32:32.232Z,101585.41
2019-05-01T00:33:39.407Z,101587.95
2019-05-01T00:34:46.200Z,101591.33
2019-05-01T00:35:53.211Z,101587.50
2019-05-01T00:36:59.964Z,101589.61
2019-05-01T00:38:07.048Z,101586.66
2019-05-01T00:39:14.472Z,101585.82
2019-05-01T00:40:21.325Z,101586.38
2019-05-01T00:41:28.379Z,101581.67
2019-05-01T00:42:35.531Z,101584.14
2019-05-01T00:43:42.272Z,101580.25
2019-05-01T00:44:49.011Z,101581.92
2019-05-01T00:45:56.348Z,101586.14
2019-05-01T00:47:03.451Z,101577.98
2019-05-01T00:48:10.510Z,101582.24
2019-05-01T00:49:17.580Z,101582.65
2019-05-01T00:50:24.656Z,101576.19
2019-05-01T00:51:31.420Z,101581.73
2019-05-01T00:52:38.349Z,101583.89
2019-05-01T00:53:45.390Z,101577.02
2019-05-01T00:54:54.103Z,101577.03
2019-05-01T00:56:28.765Z,101577.95
2019-05-01T00:57:41.839Z,101575.41
2019-05-01T00:58:58.062Z,101581.73
2019-05-01T01:00:23.226Z,101575.33
2019-05-01T01:01:51.327Z,101583.48
2019-05-01T01:02:58.993Z,101574.21
2019-05-01T01:04:06.091Z,101572.14
2019-05-01T01:05:12.933Z,101572.61
2019-05-01T01:06:19.760Z,101576.89
2019-05-01T01:07:27.240Z,101571.31
2019-05-01T01:08:34.889Z,101571.31
2019-05-01T01:09:41.639Z,101571.33
2019-05-01T01:10:48.755Z,101562.34
2019-05-01T01:11:55.635Z,101567.91
2019-05-01T01:13:03.129Z,101564.09
2019-05-01T01:14:09.888Z,101568.77
2019-05-01T01:15:16.719Z,101567.44
2019-05-01T01:16:23.493Z,101568.27
2019-05-01T01:17:30.605Z,101565.66
2019-05-01T01:18:37.569Z,101569.48
2019-05-01T01:19:44.408Z,101566.09
2019-05-01T01:20:51.156Z,101563.15
2019-05-01T01:21:59.347Z,101568.27
2019-05-01T01:23:06.193Z,101564.80
2019-05-01T01:24:13.300Z,101557.50
2019-05-01T01:25:20.028Z,101558.83
2019-05-01T01:26:26.803Z,101558.04
2019-05-01T01:27:39.783Z,101562.35
2019-05-01T01:28:46.656Z,101555.57
2019-05-01T01:29:53.423Z,101553.04
2019-05-01T01:31:00.867Z,101550.07
2019-05-01T01:32:07.998Z,101551.28
2019-05-01T01:33:14.788Z,101551.66
2019-05-01T01:34:22.179Z,101544.86
2019-05-01T01:35:30.420Z,101542.69
2019-05-01T01:36:38.433Z,101535.84
2019-05-01T01:37:45.893Z,101542.23
2019-05-01T01:38:52.671Z,101542.64
2019-05-01T01:40:00.285Z,101541.77
2019-05-01T01:41:07.637Z,101540.05
2019-05-01T01:42:15.067Z,101544.77
2019-05-01T01:43:53.193Z,101544.41
2019-05-01T01:45:35.153Z,101538.80
2019-05-01T01:46:42.883Z,101538.34
2019-05-01T01:48:07.285Z,101538.34
2019-05-01T01:49:14.689Z,101522.55
2019-05-01T01:50:21.549Z,101527.67
2019-05-01T01:51:29.670Z,101522.56
2019-05-01T01:52:36.845Z,101519.17
2019-05-01T01:53:44.087Z,101520.89
2019-05-01T01:54:51.131Z,101518.34
2019-05-01T01:55:58.283Z,101520.08
2019-05-01T01:57:05.700Z,101520.98
2019-05-01T01:58:12.983Z,101511.97
2019-05-01T01:59:21.368Z,101520.52
2019-05-01T02:00:34.146Z,101511.09
2019-05-01T02:02:09.137Z,101511.95
2019-05-01T02:03:15.879Z,101511.95
2019-05-01T02:04:40.388Z,101517.98
2019-05-01T02:05:47.196Z,101517.27
2019-05-01T02:06:53.957Z,101512.06
2019-05-01T02:08:01.295Z,101508.57
2019-05-01T02:09:10.164Z,101511.92
2019-05-01T02:10:17.583Z,101511.49
2019-05-01T02:11:24.709Z,101511.02
2019-05-01T02:12:31.541Z,101513.58
2019-05-01T02:13:39.336Z,101510.12
2019-05-01T02:14:46.105Z,101509.24
2019-05-01T02:15:52.887Z,101513.44
2019-05-01T02:16:59.656Z,101507.89
2019-05-01T02:18:07.356Z,101510.08
2019-05-01T02:19:14.467Z,101510.53
2019-05-01T02:20:23.282Z,101504.13
2019-05-01T02:21:30.158Z,101507.05
2019-05-01T02:22:37.228Z,101502.30
2019-05-01T02:23:44.313Z,101501.91
2019-05-01T02:24:51.387Z,101505.29
2019-05-01T02:25:58.994Z,101504.94
2019-05-01T02:27:10.109Z,101507.44
2019-05-01T02:28:36.667Z,101500.66
2019-05-01T02:29:48.636Z,101501.10
2019-05-01T02:31:27.070Z,101507.15
2019-05-01T02:32:21.186Z,101507.17
2019-05-01T02:33:28.415Z,101505.00
2019-05-01T02:34:39.036Z,101503.69
2019-05-01T02:35:47.049Z,101503.31
2019-05-01T02:36:57.642Z,101499.62
2019-05-01T02:38:06.898Z,101498.34
2019-05-01T02:39:15.229Z,101500.05
2019-05-01T02:40:59.466Z,101498.70
2019-05-01T02:42:09.304Z,101503.40
2019-05-01T02:43:19.563Z,101494.97
2019-05-01T02:44:37.188Z,101497.14
2019-05-01T02:45:48.778Z,101495.87
2019-05-01T02:46:59.401Z,101497.95
2019-05-01T02:48:07.270Z,101499.16
2019-05-01T02:49:36.488Z,101498.70
2019-05-01T02:50:45.571Z,101495.03
2019-05-01T02:51:53.684Z,101495.06
2019-05-01T02:53:00.843Z,101492.02
2019-05-01T02:54:08.774Z,101490.72
2019-05-01T02:55:29.172Z,101492.86
2019-05-01T02:56:56.679Z,101492.38
2019-05-01T02:58:04.596Z,101484.25
2019-05-01T02:59:12.614Z,101483.53
2019-05-01T03:00:19.451Z,101480.98
2019-05-01T03:01:44.734Z,101487.45
2019-05-01T03:02:38.142Z,101486.16
2019-05-01T03:03:45.438Z,101486.62
2019-05-01T03:04:53.245Z,101482.38
2019-05-01T03:06:00.311Z,101482.82
2019-05-01T03:07:08.836Z,101477.72
2019-05-01T03:08:15.966Z,101484.63
2019-05-01T03:09:24.111Z,101476.91
2019-05-01T03:10:31.352Z,101481.56
2019-05-01T03:11:41.309Z,101477.27
2019-05-01T03:12:50.685Z,101474.30
2019-05-01T03:14:01.839Z,101472.56
2019-05-01T03:15:09.375Z,101476.84
2019-05-01T03:16:18.441Z,101474.67
2019-05-01T03:17:50.342Z,101471.66
2019-05-01T03:18:59.525Z,101470.34
2019-05-01T03:20:25.839Z,101469.12
2019-05-01T03:21:40.994Z,101471.73
2019-05-01T03:23:07.503Z,101470.38
2019-05-01T03:24:21.541Z,101472.84
2019-05-01T03:25:28.431Z,101468.72
2019-05-01T03:26:36.315Z,101473.83
2019-05-01T03:27:44.662Z,101468.25
2019-05-01T03:28:51.510Z,101466.08
2019-05-01T03:29:58.314Z,101463.52
2019-05-01T03:31:06.449Z,101461.03
2019-05-01T03:32:17.805Z,101465.69
2019-05-01T03:33:21.731Z,101457.95
2019-05-01T03:34:29.802Z,101460.94
2019-05-01T03:35:37.094Z,101456.72
2019-05-01T03:36:44.255Z,101460.16
2019-05-01T03:37:51.409Z,101458.84
2019-05-01T03:38:58.894Z,101460.11
2019-05-01T03:40:06.635Z,101462.30
2019-05-01T03:41:13.796Z,101458.39
2019-05-01T03:42:20.658Z,101460.03
2019-05-01T03:43:28.548Z,101456.63
2019-05-01T03:44:36.000Z,101455.34
2019-05-01T03:45:44.264Z,101454.05
2019-05-01T03:46:51.541Z,101455.70
2019-05-01T03:47:59.297Z,101454.81
2019-05-01T03:49:06.823Z,101456.19
2019-05-01T03:50:13.813Z,101458.04
2019-05-01T03:51:21.491Z,101458.87
2019-05-01T03:52:28.842Z,101461.84
2019-05-01T03:53:37.018Z,101456.67
2019-05-01T03:54:44.265Z,101457.95
2019-05-01T03:55:51.199Z,101457.13
2019-05-01T03:56:58.431Z,101455.00
2019-05-01T03:58:05.919Z,101457.09
2019-05-01T03:59:13.274Z,101456.66
2019-05-01T04:00:27.810Z,101457.47
2019-05-01T04:02:00.028Z,101457.94
2019-05-01T04:03:26.055Z,101459.69
2019-05-01T04:04:33.697Z,101460.95
2019-05-01T04:05:40.754Z,101458.41
2019-05-01T04:06:49.163Z,101455.92
2019-05-01T04:07:56.678Z,101450.84
2019-05-01T04:09:03.987Z,101455.94
2019-05-01T04:10:11.677Z,101457.67
2019-05-01T04:11:19.228Z,101455.48
2019-05-01T04:12:26.311Z,101458.12
2019-05-01T04:13:34.625Z,101457.20
2019-05-01T04:14:42.152Z,101459.77
2019-05-01T04:15:49.760Z,101458.45
2019-05-01T04:17:12.974Z,101453.84
2019-05-01T04:18:20.027Z,101456.84
2019-05-01T04:19:28.183Z,101457.20
2019-05-01T04:20:34.952Z,101456.75
2019-05-01T04:21:48.307Z,101465.25
2019-05-01T04:22:55.462Z,101456.75
2019-05-01T04:24:03.078Z,101457.55
2019-05-01T04:25:11.201Z,101462.15
2019-05-01T04:26:18.375Z,101456.26
2019-05-01T04:27:33.014Z,101455.93
2019-05-01T04:28:59.004Z,101457.95
2019-05-01T04:30:17.424Z,101459.22
2019-05-01T04:31:38.452Z,101454.06
2019-05-01T04:32:52.470Z,101456.66
2019-05-01T04:33:56.306Z,101452.45
2019-05-01T04:35:23.168Z,101457.54
2019-05-01T04:36:35.265Z,101462.61
2019-05-01T04:37:43.002Z,101465.23
2019-05-01T04:38:50.603Z,101464.86
2019-05-01T04:39:57.606Z,101466.06
2019-05-01T04:41:05.186Z,101465.98
2019-05-01T04:42:12.370Z,101464.41
2019-05-01T04:43:19.687Z,101466.51
2019-05-01T04:44:26.840Z,101466.88
2019-05-01T04:45:34.508Z,101466.42
2019-05-01T04:46:41.858Z,101470.70
2019-05-01T04:47:49.753Z,101466.16
2019-05-01T04:48:57.064Z,101472.19
2019-05-01T04:50:04.170Z,101468.25
2019-05-01T04:51:11.245Z,101471.64
2019-05-01T04:52:18.572Z,101470.00
2019-05-01T04:53:25.938Z,101467.80
2019-05-01T04:54:33.639Z,101468.16
2019-05-01T04:55:41.119Z,101470.70
2019-05-01T04:56:48.818Z,101470.70
2019-05-01T04:57:56.065Z,101475.39
2019-05-01T04:59:03.682Z,101465.97
2019-05-01T05:00:10.744Z,101470.17
2019-05-01T05:01:18.026Z,101464.99
2019-05-01T05:02:34.359Z,101470.10
2019-05-01T05:03:41.340Z,101470.02
2019-05-01T05:04:48.596Z,101473.98
2019-05-01T05:05:55.932Z,101467.58
2019-05-01T05:07:04.090Z,101469.24
2019-05-01T05:08:11.978Z,101470.05
2019-05-01T05:09:21.187Z,101468.75
2019-05-01T05:10:28.873Z,101474.80
2019-05-01T05:11:49.047Z,101476.01
2019-05-01T05:13:21.302Z,101468.28
2019-05-01T05:14:32.155Z,101470.36
2019-05-01T05:16:13.476Z,101468.63
2019-05-01T05:17:22.549Z,101473.77
2019-05-01T05:18:29.351Z,101473.41
2019-05-01T05:19:36.471Z,101474.67
2019-05-01T05:20:43.526Z,101468.77
2019-05-01T05:21:50.776Z,101467.02
2019-05-01T05:22:58.537Z,101466.57
2019-05-01T05:24:05.855Z,101471.74
2019-05-01T05:25:12.999Z,101471.23
2019-05-01T05:26:20.593Z,101465.73
2019-05-01T05:27:28.138Z,101471.19
2019-05-01T05:28:36.580Z,101468.98
2019-05-01T05:29:46.060Z,101465.25
2019-05-01T05:30:54.817Z,101463.60
2019-05-01T05:32:04.533Z,101465.72
2019-05-01T05:33:18.647Z,101468.28
2019-05-01T05:34:24.223Z,101472.92
2019-05-01T05:35:36.035Z,101469.41
2019-05-01T05:36:45.292Z,101473.98
2019-05-01T05:38:12.870Z,101468.05
2019-05-01T05:39:34.774Z,101464.63
2019-05-01T05:40:43.914Z,101473.97
2019-05-01T05:41:54.009Z,101473.92
2019-05-01T05:43:01.087Z,101475.28
2019-05-01T05:44:08.180Z,101471.44
2019-05-01T05:45:14.953Z,101474.45
2019-05-01T05:46:22.048Z,101471.39
2019-05-01T05:47:29.935Z,101465.81
2019-05-01T05:48:37.289Z,101470.48
2019-05-01T05:49:44.374Z,101470.16
2019-05-01T05:51:11.243Z,101470.27
2019-05-01T05:52:27.326Z,101471.52
2019-05-01T05:53:40.736Z,101472.70
2019-05-01T05:55:01.488Z,101473.95
2019-05-01T05:56:14.367Z,101470.23
2019-05-01T05:57:31.679Z,101473.17
2019-05-01T05:58:46.765Z,101476.53
2019-05-01T06:00:01.014Z,101474.07
2019-05-01T06:01:29.363Z,101473.95
2019-05-01T06:02:50.643Z,101475.20
2019-05-01T06:04:34.995Z,101478.13
2019-05-01T06:05:59.245Z,101481.99
2019-05-01T06:07:22.568Z,101477.77
2019-05-01T06:08:34.158Z,101477.78
2019-05-01T06:09:52.629Z,101479.69
2019-05-01T06:11:16.341Z,101479.33
2019-05-01T06:12:48.277Z,101478.39
2019-05-01T06:14:05.857Z,101478.39
2019-05-01T06:15:29.759Z,101478.41
2019-05-01T06:16:59.092Z,101473.70
2019-05-01T06:18:20.985Z,101475.75
2019-05-01T06:19:39.729Z,101476.16
2019-05-01T06:21:02.338Z,101479.09
2019-05-01T06:22:25.858Z,101478.76
2019-05-01T06:23:40.519Z,101483.83
2019-05-01T06:24:50.236Z,101479.41
2019-05-01T06:26:20.724Z,101477.16
2019-05-01T06:27:28.748Z,101483.04
2019-05-01T06:28:35.540Z,101481.83
2019-05-01T06:29:42.797Z,101477.64
2019-05-01T06:30:49.632Z,101478.44
2019-05-01T06:31:58.715Z,101477.05
2019-05-01T06:33:09.552Z,101482.17
2019-05-01T06:34:14.797Z,101476.55
2019-05-01T06:35:22.283Z,101476.16
2019-05-01T06:36:29.403Z,101476.11
2019-05-01T06:38:12.224Z,101478.20
2019-05-01T06:39:19.337Z,101482.05
2019-05-01T06:40:39.274Z,101476.45
2019-05-01T06:41:46.406Z,101469.98
2019-05-01T06:42:53.345Z,101469.53
2019-05-01T06:44:07.517Z,101471.20
2019-05-01T06:45:16.976Z,101468.96
2019-05-01T06:46:35.451Z,101473.58
2019-05-01T06:47:56.769Z,101472.67
2019-05-01T06:49:15.540Z,101467.06
2019-05-01T06:50:37.023Z,101474.36
2019-05-01T06:51:53.173Z,101468.78
2019-05-01T06:53:04.723Z,101469.12
2019-05-01T06:54:15.989Z,101473.58
2019-05-01T06:55:22.520Z,101470.81
2019-05-01T06:56:29.017Z,101468.00
2019-05-01T06:57:38.285Z,101469.09
2019-05-01T06:58:46.575Z,101471.14
2019-05-01T06:59:53.438Z,101464.23
2019-05-01T07:01:00.216Z,101464.98
2019-05-01T07:02:09.644Z,101461.85
2019-05-01T07:03:17.178Z,101463.41
2019-05-01T07:04:24.564Z,101465.39
2019-05-01T07:05:32.719Z,101467.48
2019-05-01T07:06:40.027Z,101471.78
2019-05-01T07:07:52.894Z,101470.01
2019-05-01T07:08:57.143Z,101463.22
2019-05-01T07:10:05.229Z,101464.30
2019-05-01T07:11:15.496Z,101465.89
2019-05-01T07:12:28.375Z,101462.71
2019-05-01T07:13:55.348Z,101465.88
2019-05-01T07:15:03.073Z,101462.71
2019-05-01T07:16:09.907Z,101460.61
2019-05-01T07:17:17.174Z,101459.45
2019-05-01T07:18:28.867Z,101458.99
2019-05-01T07:20:12.039Z,101462.62
2019-05-01T07:21:22.816Z,101460.05
2019-05-01T07:22:27.831Z,101462.04
2019-05-01T07:23:34.589Z,101457.59
2019-05-01T07:24:42.220Z,101464.16
2019-05-01T07:25:49.079Z,101466.95
2019-05-01T07:26:56.513Z,101465.05
2019-05-01T07:28:03.485Z,101464.27
2019-05-01T07:29:13.902Z,101471.93
2019-05-01T07:30:34.328Z,101473.91
2019-05-01T07:31:41.478Z,101467.28
2019-05-01T07:32:48.697Z,101469.16
2019-05-01T07:33:55.671Z,101466.45
2019-05-01T07:35:03.972Z,101470.13
2019-05-01T07:36:15.281Z,101469.98
2019-05-01T07:37:25.844Z,101467.22
2019-05-01T07:38:33.039Z,101465.91
2019-05-01T07:39:39.164Z,101472.10
2019-05-01T07:40:46.508Z,101465.80
2019-05-01T07:41:55.129Z,101469.16
2019-05-01T07:43:09.458Z,101472.91
2019-05-01T07:44:38.469Z,101471.37
2019-05-01T07:46:07.581Z,101473.77
2019-05-01T07:47:25.881Z,101473.27
2019-05-01T07:48:41.693Z,101475.67
2019-05-01T07:49:57.036Z,101473.77
2019-05-01T07:51:07.019Z,101481.19
2019-05-01T07:52:17.177Z,101475.08
2019-05-01T07:53:23.842Z,101474.96
2019-05-01T07:54:31.126Z,101473.38
2019-05-01T07:55:38.475Z,101474.94
2019-05-01T07:56:45.457Z,101478.09
2019-05-01T07:57:52.466Z,101473.18
2019-05-01T07:59:00.665Z,101474.47
2019-05-01T08:00:12.144Z,101481.55
2019-05-01T08:01:26.542Z,101480.52
2019-05-01T08:02:33.423Z,101474.86
2019-05-01T08:03:42.748Z,101475.49
2019-05-01T08:04:48.752Z,101476.22
2019-05-01T08:05:55.587Z,101478.95
2019-05-01T08:07:02.846Z,101474.13
2019-05-01T08:08:09.680Z,101481.27
2019-05-01T08:09:17.183Z,101476.09
2019-05-01T08:10:25.905Z,101479.14
2019-05-01T08:11:32.735Z,101480.55
2019-05-01T08:12:39.506Z,101478.41
2019-05-01T08:13:46.590Z,101477.69
2019-05-01T08:14:53.946Z,101475.86
2019-05-01T08:16:02.055Z,101473.89
2019-05-01T08:17:12.893Z,101472.78
2019-05-01T08:18:29.559Z,101476.34
2019-05-01T08:19:59.683Z,101480.59
2019-05-01T08:21:21.038Z,101479.78
2019-05-01T08:22:32.034Z,101479.14
2019-05-01T08:23:42.698Z,101473.86
2019-05-01T08:24:49.314Z,101471.48
2019-05-01T08:25:56.072Z,101478.70
2019-05-01T08:27:03.630Z,101479.11
2019-05-01T08:28:27.696Z,101473.61
2019-05-01T08:29:51.453Z,101478.94
2019-05-01T08:31:09.409Z,101480.05
2019-05-01T08:32:47.373Z,101479.09
2019-05-01T08:34:08.963Z,101475.56
2019-05-01T08:35:18.001Z,101476.85
2019-05-01T08:36:24.754Z,101476.34
2019-05-01T08:37:32.462Z,101481.40
2019-05-01T08:38:39.651Z,101475.55
2019-05-01T08:39:46.792Z,101474.92
2019-05-01T08:40:55.438Z,101475.95
2019-05-01T08:42:03.140Z,101475.14
2019-05-01T08:43:13.723Z,101476.33
2019-05-01T08:44:24.922Z,101472.87
2019-05-01T08:46:00.670Z,101479.89
2019-05-01T08:47:20.754Z,101476.88
2019-05-01T08:48:51.341Z,101473.36
2019-05-01T08:50:08.007Z,101474.27
2019-05-01T08:51:14.766Z,101474.82
2019-05-01T08:52:21.525Z,101474.47
2019-05-01T08:53:28.654Z,101475.30
2019-05-01T08:54:35.563Z,101473.02
2019-05-01T08:55:45.205Z,101475.48
2019-05-01T08:56:52.872Z,101472.24
2019-05-01T08:57:59.932Z,101472.80
2019-05-01T08:59:06.957Z,101473.56
2019-05-01T09:00:14.284Z,101467.78
2019-05-01T09:01:21.261Z,101463.44
2019-05-01T09:02:28.038Z,101465.46
2019-05-01T09:03:34.800Z,101464.95
2019-05-01T09:04:41.595Z,101468.77
2019-05-01T09:05:52.380Z,101467.80
2019-05-01T09:06:57.988Z,101466.61
2019-05-01T09:08:04.761Z,101464.32
2019-05-01T09:09:11.977Z,101464.73
2019-05-01T09:10:21.712Z,101461.73
2019-05-01T09:11:31.827Z,101457.95
2019-05-01T09:12:36.515Z,101459.84
2019-05-01T09:13:43.614Z,101459.73
2019-05-01T09:14:51.342Z,101456.05
2019-05-01T09:15:58.264Z,101456.17
2019-05-01T09:17:05.149Z,101458.02
2019-05-01T09:18:12.379Z,101452.91
2019-05-01T09:19:19.307Z,101458.28
2019-05-01T09:20:26.562Z,101461.53
2019-05-01T09:21:37.956Z,101452.66
2019-05-01T09:22:42.901Z,101456.07
2019-05-01T09:23:51.444Z,101455.58
2019-05-01T09:25:00.285Z,101452.52
2019-05-01T09:26:51.688Z,101454.67
2019-05-01T09:28:06.025Z,101455.34
2019-05-01T09:29:17.842Z,101455.31
2019-05-01T09:30:30.365Z,101456.83
2019-05-01T09:31:37.349Z,101451.54
2019-05-01T09:32:45.980Z,101450.22
2019-05-01T09:33:54.139Z,101445.12
2019-05-01T09:35:01.268Z,101444.70
2019-05-01T09:36:08.698Z,101450.67
2019-05-01T09:37:16.382Z,101442.45
2019-05-01T09:38:23.216Z,101444.45
2019-05-01T09:39:31.472Z,101441.45
2019-05-01T09:40:38.642Z,101444.11
2019-05-01T09:41:47.525Z,101444.19
2019-05-01T09:42:59.306Z,101443.41
2019-05-01T09:44:05.839Z,101444.44
2019-05-01T09:45:15.855Z,101446.05
2019-05-01T09:46:23.329Z,101444.80
2019-05-01T09:47:31.287Z,101444.84
2019-05-01T09:48:38.664Z,101437.05
2019-05-01T09:49:48.805Z,101441.17
2019-05-01T09:51:05.405Z,101435.83
2019-05-01T09:52:31.188Z,101438.70
2019-05-01T09:53:48.699Z,101435.65
2019-05-01T09:55:24.924Z,101437.56
2019-05-01T09:56:32.374Z,101441.02
2019-05-01T09:57:41.490Z,101437.89
2019-05-01T09:58:48.509Z,101435.98
2019-05-01T09:59:55.457Z,101440.77
2019-05-01T10:01:02.749Z,101440.58
2019-05-01T10:02:09.908Z,101437.55
2019-05-01T10:03:18.125Z,101435.55
2019-05-01T10:04:46.270Z,101434.20
2019-05-01T10:05:53.222Z,101427.94
2019-05-01T10:07:02.313Z,101426.80
2019-05-01T10:08:09.252Z,101429.57
2019-05-01T10:09:17.949Z,101426.58
2019-05-01T10:10:29.287Z,101424.34
2019-05-01T10:11:35.978Z,101426.45
2019-05-01T10:12:46.930Z,101423.94
2019-05-01T10:13:53.649Z,101421.54
2019-05-01T10:15:00.648Z,101421.70
2019-05-01T10:16:07.589Z,101425.98
2019-05-01T10:17:15.250Z,101420.28
2019-05-01T10:18:22.540Z,101423.22
2019-05-01T10:19:29.478Z,101421.03
2019-05-01T10:20:36.813Z,101422.83
2019-05-01T10:21:44.001Z,101421.98
2019-05-01T10:22:50.958Z,101425.18
2019-05-01T10:23:57.928Z,101425.35
2019-05-01T10:25:08.628Z,101423.56
2019-05-01T10:26:19.083Z,101416.37
2019-05-01T10:27:30.914Z,101421.58
2019-05-01T10:28:54.606Z,101412.16
2019-05-01T10:30:39.215Z,101417.94
2019-05-01T10:31:59.641Z,101416.48
2019-05-01T10:33:10.395Z,101410.50
2019-05-01T10:34:28.229Z,101416.48
2019-05-01T10:35:50.608Z,101406.98
2019-05-01T10:36:57.739Z,101405.05
2019-05-01T10:38:09.218Z,101408.81
2019-05-01T10:39:16.069Z,101406.34
2019-05-01T10:40:22.403Z,101409.14
2019-05-01T10:41:29.546Z,101404.52
2019-05-01T10:42:36.396Z,101408.94
2019-05-01T10:43:43.508Z,101400.83
2019-05-01T10:44:50.729Z,101402.30
2019-05-01T10:45:57.519Z,101401.60
2019-05-01T10:47:04.465Z,101402.38
2019-05-01T10:48:11.447Z,101397.72
2019-05-01T10:49:18.928Z,101397.62
2019-05-01T10:50:26.146Z,101394.60
2019-05-01T10:51:33.857Z,101394.72
2019-05-01T10:52:45.608Z,101397.12
2019-05-01T10:53:52.667Z,101395.59
2019-05-01T10:55:00.004Z,101386.50
2019-05-01T10:56:07.300Z,101384.53
2019-05-01T10:57:14.701Z,101391.12
2019-05-01T10:58:21.955Z,101386.00
2019-05-01T10:59:29.548Z,101390.80
2019-05-01T11:00:38.845Z,101387.02
2019-05-01T11:01:51.893Z,101389.23
2019-05-01T11:02:59.744Z,101389.45
2019-05-01T11:04:07.286Z,101385.91
2019-05-01T11:05:14.482Z,101383.64
2019-05-01T11:06:21.743Z,101381.06
2019-05-01T11:07:28.678Z,101384.27
2019-05-01T11:08:35.461Z,101381.70
2019-05-01T11:09:42.529Z,101381.75
2019-05-01T11:10:50.592Z,101381.02
2019-05-01T11:11:57.891Z,101378.75
2019-05-01T11:13:07.667Z,101380.14
2019-05-01T11:14:14.109Z,101380.19
2019-05-01T11:15:21.106Z,101377.14
2019-05-01T11:16:28.557Z,101375.61
2019-05-01T11:17:35.863Z,101379.41
2019-05-01T11:18:42.980Z,101381.70
2019-05-01T11:19:50.203Z,101380.09
2019-05-01T11:20:57.521Z,101379.05
2019-05-01T11:22:05.174Z,101376.67
2019-05-01T11:23:12.467Z,101375.78
2019-05-01T11:24:19.687Z,101377.59
2019-05-01T11:25:28.240Z,101379.25
2019-05-01T11:26:35.708Z,101375.76
2019-05-01T11:27:43.026Z,101380.39
2019-05-01T11:28:49.988Z,101379.85
2019-05-01T11:29:57.185Z,101378.23
2019-05-01T11:31:04.212Z,101379.14
2019-05-01T11:32:36.593Z,101385.45
2019-05-01T11:34:21.119Z,101378.48
2019-05-01T11:35:48.014Z,101380.67
2019-05-01T11:37:23.005Z,101380.31
2019-05-01T11:39:01.419Z,101374.41
2019-05-01T11:40:13.636Z,101375.22
2019-05-01T11:41:28.177Z,101373.63
2019-05-01T11:42:35.787Z,101369.45
2019-05-01T11:43:42.655Z,101363.72
2019-05-01T11:44:49.549Z,101363.92
2019-05-01T11:45:57.273Z,101363.34
2019-05-01T11:47:04.914Z,101366.45
2019-05-01T11:48:12.214Z,101362.11
2019-05-01T11:49:19.597Z,101364.12
2019-05-01T11:50:26.437Z,101368.69
2019-05-01T11:51:33.673Z,101366.31
2019-05-01T11:52:41.199Z,101361.53
2019-05-01T11:53:48.114Z,101367.31
2019-05-01T11:55:14.129Z,101364.41
2019-05-01T11:56:21.344Z,101361.14
2019-05-01T11:57:28.407Z,101364.17
2019-05-01T11:58:35.984Z,101359.63
2019-05-01T11:59:42.859Z,101364.81
2019-05-01T12:00:51.242Z,101364.08
2019-05-01T12:01:58.385Z,101363.55
2019-05-01T12:03:05.368Z,101362.26
2019-05-01T12:04:12.785Z,101353.89
2019-05-01T12:05:20.198Z,101359.98
2019-05-01T12:06:27.521Z,101350.90
2019-05-01T12:07:34.331Z,101353.23
2019-05-01T12:08:41.388Z,101362.37
2019-05-01T12:09:48.738Z,101353.92
2019-05-01T12:10:55.739Z,101354.18
2019-05-01T12:12:06.075Z,101353.31
2019-05-01T12:13:12.909Z,101349.09
2019-05-01T12:14:20.215Z,101346.70
2019-05-01T12:15:27.622Z,101350.58
2019-05-01T12:16:52.771Z,101348.30
2019-05-01T12:17:59.816Z,101349.02
2019-05-01T12:19:06.901Z,101346.27
2019-05-01T12:20:14.878Z,101338.79
2019-05-01T12:21:21.798Z,101340.53
2019-05-01T12:22:28.765Z,101339.03
2019-05-01T12:23:35.847Z,101338.61
2019-05-01T12:24:42.734Z,101335.77
2019-05-01T12:25:50.432Z,101333.80
2019-05-01T12:26:57.417Z,101327.03
2019-05-01T12:28:04.404Z,101337.47
2019-05-01T12:29:11.617Z,101331.00
2019-05-01T12:30:19.753Z,101334.99
2019-05-01T12:31:26.794Z,101325.69
2019-05-01T12:32:34.403Z,101333.29
2019-05-01T12:33:41.240Z,101323.77
2019-05-01T12:34:48.265Z,101325.20
2019-05-01T12:35:57.096Z,101326.41
2019-05-01T12:37:41.476Z,101323.70
2019-05-01T12:38:48.347Z,101326.09
2019-05-01T12:39:55.513Z,101318.02
2019-05-01T12:41:39.655Z,101318.83
2019-05-01T12:42:47.427Z,101319.23
2019-05-01T12:43:54.619Z,101315.34
2019-05-01T12:45:01.641Z,101317.44
2019-05-01T12:46:10.630Z,101322.27
2019-05-01T12:47:22.268Z,101320.40
2019-05-01T12:48:29.236Z,101314.18
2019-05-01T12:49:36.095Z,101315.72
2019-05-01T12:50:43.329Z,101315.78
2019-05-01T12:53:22.390Z,101316.77
2019-05-01T12:54:44.990Z,101320.81
2019-05-01T12:56:17.060Z,101312.90
2019-05-01T12:57:24.850Z,101304.39
2019-05-01T12:58:31.639Z,101308.25
2019-05-01T12:59:38.725Z,101307.02
2019-05-01T13:00:49.729Z,101305.04
2019-05-01T13:01:56.744Z,101304.05
2019-05-01T13:03:03.871Z,101304.42
2019-05-01T13:04:10.705Z,101304.00
2019-05-01T13:05:18.139Z,101298.46
2019-05-01T13:06:25.416Z,101291.62
2019-05-01T13:07:32.875Z,101292.80
2019-05-01T13:08:39.665Z,101288.69
2019-05-01T13:09:46.859Z,101294.32
2019-05-01T13:10:54.084Z,101285.04
2019-05-01T13:12:01.321Z,101279.28
2019-05-01T13:13:10.997Z,101280.49
2019-05-01T13:14:17.386Z,101285.17
2019-05-01T13:15:24.332Z,101283.32
2019-05-01T13:16:31.276Z,101278.94
2019-05-01T13:17:38.628Z,101284.31
2019-05-01T13:18:45.399Z,101285.16
2019-05-01T13:19:52.240Z,101282.03
2019-05-01T13:20:59.380Z,101283.09
2019-05-01T13:22:06.269Z,101278.52
2019-05-01T13:23:13.096Z,101278.73
2019-05-01T13:24:23.109Z,101285.58
2019-05-01T13:25:30.385Z,101281.20
2019-05-01T13:26:42.936Z,101280.80
2019-05-01T13:27:55.906Z,101282.75
2019-05-01T13:29:07.271Z,101276.50
2019-05-01T13:30:45.668Z,101271.61